Oriental Freesia — ZGCD7 — position and weather

sailwx.info

Track history (hours):
 
Tides and Currents Weather Stations Pressure Air Temp Water Temp Dewpoint Dewpoint Depression Visibility Wind Speed Wind Dir Waves Ship Positions

Oriental Freesia

Last reported at 2016-Jun-14 12:32 UTC. Time now 2016-Jul-02 09:36 UTC.
Position N 33°16' E 028°07'.
Warning: this ship's position is 17 days out of date.

Length 134 m; draft 9.2 m.

Type: Ship (hazmat cat A). MMSI: 319349000.

Date/timePositionNaut miles runAvg speedWind from/ knotsBaromVisibWave heightAir tempDewpointWater temp
2016-Jun-14 12:32N 33°16' E 028°07'  
2016-Jun-12 02:33N 36°27' E 014°37'1312.4
2016-Jun-12 01:33N 36°31' E 014°22'1212.5
2016-Jun-12 00:33N 36°34' E 014°07'1212.4
2016-Jun-11 23:33N 36°37' E 013°52'1312.2
2016-Jun-11 22:29N 36°41' E 013°37'1212.8
2016-Jun-11 21:33N 36°43' E 013°22'1313.0
2016-Jun-11 20:32N 36°47' E 013°06'1312.5
2016-Jun-11 19:30N 36°50' E 012°51'44111.8
2016-Jun-10 06:11N 37°11' E 003°39'812.4
2016-Jun-10 05:33N 37°11' E 003°30'1312.3
2016-Jun-10 04:31N 37°10' E 003°14'1212.1
2016-Jun-10 03:33N 37°09' E 002°59'1212.1
2016-Jun-10 02:33N 37°08' E 002°44'1212.1
2016-Jun-10 01:33N 37°06' E 002°29'1313.0
2016-Jun-10 00:34N 37°04' E 002°13'1312.7
2016-Jun-09 23:33N 37°02' E 001°57'1212.4
2016-Jun-09 22:33N 37°00' E 001°42'1212.4
2016-Jun-09 21:33N 36°59' E 001°26'1212.4
2016-Jun-09 20:33N 36°57' E 001°11'1212.2
2016-Jun-09 19:33N 36°56' E 000°56'1412.3
2016-Jun-09 18:26N 36°54' E 000°39'1012.0
2016-Jun-09 17:33N 36°53' E 000°26'1211.7
2016-Jun-09 16:33N 36°51' E 000°11'1211.8
2016-Jun-09 15:33N 36°49' W 000°03'1212.0
2016-Jun-09 14:33N 36°46' W 000°18'1212.4
2016-Jun-09 13:33N 36°43' W 000°33'1312.9
2016-Jun-09 12:33N 36°39' W 000°48'1313.2
2016-Jun-09 11:33N 36°36' W 001°04'20612.7
2016-Jun-08 19:20N 35°60' W 005°15'1113.6
2016-Jun-08 18:33N 35°57' W 005°28'15111.4
2016-Jun-08 05:19N 36°20' W 008°33'3311.6
2016-Jun-08 02:29N 36°28' W 009°12'1410.9
2016-Jun-08 01:11N 36°36' W 009°27'1811.2
2016-Jun-07 23:33N 36°52' W 009°39'1212.3
2016-Jun-07 22:33N 37°04' W 009°43'1212.1
2016-Jun-07 21:33N 37°15' W 009°46'1212.3
2016-Jun-07 20:33N 37°27' W 009°50'1212.4
2016-Jun-07 19:33N 37°39' W 009°54'1212.4
2016-Jun-07 18:33N 37°51' W 009°58'1212.1
2016-Jun-07 17:33N 38°03' W 010°01'1211.9
2016-Jun-07 16:33N 38°15' W 010°04'1212.0
2016-Jun-07 15:33N 38°26' W 010°07'1211.9
2016-Jun-07 14:33N 38°38' W 010°11'1212.0
2016-Jun-07 13:33N 38°50' W 010°11'1111.3
2016-Jun-07 12:33N 39°01' W 010°11'1511.9
2016-Jun-07 11:17N 39°16' W 010°11'2111.9
2016-Jun-07 09:33N 39°37' W 010°12'  
2016-Jun-05 00:22N 49°25' W 004°25'1513.0
2016-Jun-04 23:14N 49°33' W 004°05'913.2
2016-Jun-04 22:33N 49°37' W 003°53'1312.7
2016-Jun-04 21:33N 49°44' W 003°36'1211.6
2016-Jun-04 20:33N 49°49' W 003°21'1010.3
2016-Jun-04 19:33N 49°55' W 003°07'9 9.4
2016-Jun-04 18:33N 49°59' W 002°54'  
Track history (hours):
 
Tides and Currents Weather Stations Pressure Air Temp Water Temp Dewpoint Dewpoint Depression Visibility Wind Speed Wind Dir Waves Ship Positions

Oriental Freesia

Last reported at 2016-Jun-14 12:32 UTC. Time now 2016-Jul-02 09:36 UTC.
Position N 33°16' E 028°07'.
Warning: this ship's position is 17 days out of date.

Length 134 m; draft 9.2 m.

Type: Ship (hazmat cat A). MMSI: 319349000.

Date/timePositionNaut miles runAvg speedWind from/ knotsBaromVisibWave heightAir tempDewpointWater temp
2016-Jun-14 12:32N 33°16' E 028°07'  
2016-Jun-12 02:33N 36°27' E 014°37'1312.4
2016-Jun-12 01:33N 36°31' E 014°22'1212.5
2016-Jun-12 00:33N 36°34' E 014°07'1212.4
2016-Jun-11 23:33N 36°37' E 013°52'1312.2
2016-Jun-11 22:29N 36°41' E 013°37'1212.8
2016-Jun-11 21:33N 36°43' E 013°22'1313.0
2016-Jun-11 20:32N 36°47' E 013°06'1312.5
2016-Jun-11 19:30N 36°50' E 012°51'44111.8
2016-Jun-10 06:11N 37°11' E 003°39'812.4
2016-Jun-10 05:33N 37°11' E 003°30'1312.3
2016-Jun-10 04:31N 37°10' E 003°14'1212.1
2016-Jun-10 03:33N 37°09' E 002°59'1212.1
2016-Jun-10 02:33N 37°08' E 002°44'1212.1
2016-Jun-10 01:33N 37°06' E 002°29'1313.0
2016-Jun-10 00:34N 37°04' E 002°13'1312.7
2016-Jun-09 23:33N 37°02' E 001°57'1212.4
2016-Jun-09 22:33N 37°00' E 001°42'1212.4
2016-Jun-09 21:33N 36°59' E 001°26'1212.4
2016-Jun-09 20:33N 36°57' E 001°11'1212.2
2016-Jun-09 19:33N 36°56' E 000°56'1412.3
2016-Jun-09 18:26N 36°54' E 000°39'1012.0
2016-Jun-09 17:33N 36°53' E 000°26'1211.7
2016-Jun-09 16:33N 36°51' E 000°11'1211.8
2016-Jun-09 15:33N 36°49' W 000°03'1212.0
2016-Jun-09 14:33N 36°46' W 000°18'1212.4
2016-Jun-09 13:33N 36°43' W 000°33'1312.9
2016-Jun-09 12:33N 36°39' W 000°48'1313.2
2016-Jun-09 11:33N 36°36' W 001°04'20612.7
2016-Jun-08 19:20N 35°60' W 005°15'1113.6
2016-Jun-08 18:33N 35°57' W 005°28'15111.4
2016-Jun-08 05:19N 36°20' W 008°33'3311.6
2016-Jun-08 02:29N 36°28' W 009°12'1410.9
2016-Jun-08 01:11N 36°36' W 009°27'1811.2
2016-Jun-07 23:33N 36°52' W 009°39'1212.3
2016-Jun-07 22:33N 37°04' W 009°43'1212.1
2016-Jun-07 21:33N 37°15' W 009°46'1212.3
2016-Jun-07 20:33N 37°27' W 009°50'1212.4
2016-Jun-07 19:33N 37°39' W 009°54'1212.4
2016-Jun-07 18:33N 37°51' W 009°58'1212.1
2016-Jun-07 17:33N 38°03' W 010°01'1211.9
2016-Jun-07 16:33N 38°15' W 010°04'1212.0
2016-Jun-07 15:33N 38°26' W 010°07'1211.9
2016-Jun-07 14:33N 38°38' W 010°11'1212.0
2016-Jun-07 13:33N 38°50' W 010°11'1111.3
2016-Jun-07 12:33N 39°01' W 010°11'1511.9
2016-Jun-07 11:17N 39°16' W 010°11'2111.9
2016-Jun-07 09:33N 39°37' W 010°12'  
2016-Jun-05 00:22N 49°25' W 004°25'1513.0
2016-Jun-04 23:14N 49°33' W 004°05'913.2
2016-Jun-04 22:33N 49°37' W 003°53'1312.7
2016-Jun-04 21:33N 49°44' W 003°36'1211.6
2016-Jun-04 20:33N 49°49' W 003°21'1010.3
2016-Jun-04 19:33N 49°55' W 003°07'9 9.4
2016-Jun-04 18:33N 49°59' W 002°54'  

Dump ship's entire track history